Date,TemperatureHighF,TemperatureAvgF,TemperatureLowF,DewpointHighF,DewpointAvgF,DewpointLowF,HumidityHigh,HumidityAvg,HumidityLow,PressureMaxIn,PressureMinIn,WindSpeedMaxMPH,WindSpeedAvgMPH,GustSpeedMaxMPH,PrecipitationSumIn
2014-1-1,28,19,9,16,9,4,100,69,41,30.55,30.33,16,4,22,0.00
2014-1-2,19,12,5,18,12,5,100,100,87,30.46,30.10,23,11,27,0.00
2014-1-3,10,4,-9,9,1,-9,100,87,47,30.84,30.00,25,10,32,0.00
2014-1-4,23,5,-13,8,-2,-13,100,77,37,30.94,30.37,17,6,25,0.00
2014-1-5,31,20,3,30,15,3,100,84,50,30.61,29.93,12,3,12,0.00
2014-1-6,52,33,22,52,30,14,100,88,63,29.93,29.31,28,7,36,0.84
2014-1-7,22,7,1,15,-5,-11,79,58,40,30.56,29.67,29,11,39,0.00
2014-1-8,20,10,0,8,2,-4,95,70,45,30.74,30.50,16,7,17,0.00
2014-1-9,31,16,5,14,8,5,100,76,36,30.83,30.60,19,5,28,0.00
2014-1-10,29,22,7,29,22,7,100,99,93,30.82,30.30,10,2,11,0.01
2014-1-11,54,40,29,54,40,29,100,100,93,30.30,29.24,16,4,21,0.40
2014-1-12,51,40,35,49,29,22,94,66,53,30.05,29.31,26,11,40,0.03
2014-1-13,46,37,23,37,30,23,100,78,56,30.21,29.90,16,7,20,0.00
2014-1-14,43,42,38,43,40,35,100,95,83,29.90,29.67,17,5,21,0.49
2014-1-15,46,36,25,38,33,25,100,90,71,30.07,29.83,13,4,17,0.00
2014-1-16,38,35,32,35,34,32,100,95,81,29.97,29.86,10,3,13,0.00
2014-1-17,42,32,24,32,27,23,100,86,49,30.06,29.92,13,4,18,0.01
2014-1-18,66,29,26,66,29,25,100,99,91,29.99,29.67,17,4,24,0.02
2014-1-19,32,27,24,26,23,21,100,86,65,29.85,29.61,21,7,25,0.03
2014-1-20,40,31,17,32,22,8,95,71,53,30.05,29.52,29,9,39,0.09
2014-1-21,18,12,7,10,3,-3,100,68,49,30.25,30.05,20,10,26,0.00
2014-1-22,15,7,2,3,-4,-7,78,59,41,30.23,29.88,23,12,26,0.00
2014-1-23,16,8,0,3,-2,-8,93,65,33,30.42,30.18,19,8,30,0.00
2014-1-24,16,9,3,2,-1,-5,79,64,43,30.56,30.19,22,8,27,0.00
2014-1-25,27,19,11,23,11,1,100,73,42,30.19,29.49,21,9,53,0.00
2014-1-26,20,15,8,19,5,-4,100,66,44,30.00,29.52,22,9,38,0.00
2014-1-27,35,21,14,31,11,-6,99,68,29,30.21,29.58,34,8,35,0.00
2014-1-28,16,11,5,-1,-6,-10,57,46,33,30.54,30.21,18,6,28,0.00
2014-1-29,23,14,6,5,-3,-11,89,48,23,30.48,30.07,15,4,21,0.00
2014-1-30,27,16,1,12,3,-3,100,60,33,30.69,30.32,14,6,17,0.00
2014-1-31,40,28,16,21,15,6,96,59,31,30.32,30.03,21,5,28,0.00
2014-2-1,44,34,23,30,23,20,96,67,45,30.42,30.06,17,5,18,0.00
2014-2-2,45,37,28,41,34,28,100,88,72,30.12,29.90,13,5,19,0.03
2014-2-3,36,30,23,30,27,23,100,90,71,30.38,30.12,16,5,16,0.00
2014-2-4,33,26,18,26,22,18,100,84,58,30.54,30.36,11,4,15,0.12
2014-2-5,26,25,24,25,24,23,100,99,89,30.38,29.75,16,7,22,0.00
2014-2-6,30,19,6,24,13,6,100,77,43,30.49,30.04,18,5,22,0.12
2014-2-7,30,15,-3,14,7,-3,100,75,36,30.61,30.18,15,4,22,0.03
2014-2-8,27,16,0,10,2,-3,100,60,30,30.61,30.23,15,5,20,0.00
2014-2-9,32,22,15,22,12,5,100,68,41,30.34,30.05,12,5,13,0.01
2014-2-10,25,19,12,20,10,4,100,69,42,30.41,30.05,26,9,31,0.00
2014-2-11,21,14,2,11,5,1,100,72,44,30.71,30.37,19,8,27,0.00
2014-2-12,28,10,-7,8,1,-7,100,70,28,30.94,30.53,10,4,14,0.00
2014-2-13,31,23,12,31,22,5,100,96,74,30.54,29.08,26,10,35,0.00
2014-2-14,36,30,23,32,25,20,100,83,64,29.80,28.97,31,8,53,0.06
2014-2-15,31,26,18,30,25,18,100,95,77,29.94,29.62,32,6,53,0.01
2014-2-16,29,22,17,23,11,5,83,63,42,30.17,29.64,37,12,42,0.00
2014-2-17,28,16,5,5,-2,-8,83,47,22,30.59,30.17,23,8,26,0.00
2014-2-18,23,14,4,23,12,0,100,91,67,30.62,30.04,9,3,12,0.00
2014-2-19,37,20,9,35,19,9,100,100,89,30.30,29.80,19,2,30,0.00
2014-2-20,49,38,29,34,29,20,100,73,32,30.21,29.92,16,6,30,0.63
2014-2-21,38,34,29,38,34,29,100,100,100,30.15,29.71,13,4,16,0.29
2014-2-22,53,39,24,35,24,18,100,64,27,30.04,29.80,29,7,35,0.00
2014-2-23,50,40,27,28,26,20,90,59,37,30.04,29.80,12,4,15,0.00
2014-2-24,39,27,20,25,12,5,75,51,35,30.11,29.80,34,12,34,0.03
2014-2-25,26,20,15,12,7,5,73,59,43,30.16,29.95,17,8,25,0.00
2014-2-26,26,14,2,11,2,-9,100,64,25,30.20,29.85,23,6,29,0.00
2014-2-27,26,12,-1,18,2,-6,100,67,30,30.19,29.65,38,8,44,0.03
2014-2-28,8,7,6,2,-3,-6,82,65,54,30.37,30.19,16,7,24,0.00
2014-3-6,30,19,6,4,-6,-13,88,38,17,30.80,30.55,17,5,23,0.00
2014-3-7,42,20,-2,21,10,-2,100,68,34,30.79,30.03,8,2,13,0.00
2014-3-8,54,36,18,28,24,18,100,65,32,30.04,29.70,19,6,25,0.00
2014-3-9,37,32,24,27,14,7,79,49,30,30.04,29.90,28,9,34,0.00
2014-3-10,43,34,26,30,21,11,82,59,47,29.94,29.61,12,3,15,0.00
2014-3-11,56,41,26,36,29,26,100,67,33,29.74,29.54,28,6,37,0.00
2014-3-12,43,38,32,38,33,28,100,85,67,29.74,29.08,17,6,53,0.39
2014-3-13,32,16,11,32,9,1,100,72,52,30.17,29.09,36,16,41,0.01
2014-3-14,38,26,13,24,12,0,90,57,37,30.32,29.93,19,8,23,0.00
2014-3-15,53,40,32,38,29,20,87,68,38,29.99,29.66,23,8,40,0.00
2014-3-16,32,25,18,19,8,0,69,48,30,30.34,30.00,22,10,53,0.00
2014-3-17,33,20,13,11,1,-4,84,45,24,30.34,30.06,17,7,23,0.00
2014-3-18,42,24,9,14,6,-5,100,54,15,30.51,30.27,12,4,15,0.00
2014-3-19,45,30,16,32,20,13,100,70,28,30.52,29.99,15,4,15,0.24
2014-3-20,49,38,31,40,32,22,100,83,43,30.00,29.63,24,6,31,0.50
2014-3-21,38,35,29,26,21,19,71,58,49,30.10,29.80,23,12,37,0.00
2014-3-22,54,35,22,37,25,19,95,68,38,30.16,29.65,34,7,41,0.01
2014-3-23,35,31,21,25,14,2,75,50,33,30.21,29.98,25,10,31,0.00
2014-3-24,30,22,12,6,1,-6,67,41,26,30.38,30.09,25,10,32,0.00
2014-3-25,36,24,8,18,11,6,100,62,31,30.37,29.96,17,5,22,0.00
2014-3-26,32,28,20,18,8,-6,70,44,25,30.22,29.74,38,15,46,0.09
2014-3-27,45,31,16,19,5,-4,63,36,18,30.45,30.21,16,8,22,0.00
2014-3-28,47,39,32,47,34,19,100,84,55,30.25,29.94,13,6,17,0.13
2014-3-29,53,44,38,46,41,37,100,90,66,30.22,29.95,17,7,24,0.90
2014-3-30,41,39,37,40,39,36,100,98,94,29.95,29.63,20,12,32,0.93
2014-3-31,43,37,33,37,32,27,100,81,65,30.08,29.76,25,12,32,0.50
2014-4-1,57,43,28,35,30,25,93,63,40,30.15,29.96,16,5,26,0.00
2014-4-2,62,45,28,39,33,28,100,68,29,30.18,29.97,13,5,19,0.00
2014-4-3,57,46,34,33,24,20,75,45,28,30.15,30.02,20,8,25,0.00
2014-4-4,51,42,35,36,28,23,100,60,39,30.15,29.89,19,7,22,0.10
2014-4-5,48,40,34,42,30,22,100,72,42,30.03,29.73,33,9,36,0.13
2014-4-6,57,42,31,27,21,16,74,47,23,30.24,30.02,20,7,30,0.00
2014-4-7,56,43,26,42,26,13,100,59,22,30.30,29.86,16,5,21,0.12
2014-4-8,64,49,42,56,43,33,100,83,45,29.86,29.29,26,7,37,0.19
2014-4-9,55,45,35,38,26,11,94,52,25,30.06,29.59,23,10,34,0.00
2014-4-10,62,49,27,34,24,15,78,40,21,30.17,29.95,28,10,32,0.00
2014-4-11,68,52,42,53,42,34,100,74,39,30.06,29.90,17,5,21,0.17
2014-4-12,67,52,36,48,37,26,100,66,22,30.22,30.02,19,5,26,0.04
2014-4-13,72,53,40,54,45,36,94,74,51,30.24,29.94,20,5,22,0.01
2014-4-14,74,63,54,57,54,50,100,74,49,29.98,29.81,30,10,35,0.00
2014-4-15,62,54,31,61,53,31,100,96,85,29.91,29.50,31,12,36,0.95
2014-4-16,42,33,26,32,18,10,100,58,30,30.67,29.91,29,13,37,0.12
2014-4-17,49,36,24,25,21,17,86,57,32,30.83,30.65,17,8,21,0.03
2014-4-18,48,36,23,31,27,23,100,74,45,30.74,30.29,12,4,15,0.00
2014-4-19,61,46,28,37,30,25,100,58,26,30.44,30.19,27,9,34,0.00
2014-4-20,60,46,28,35,24,14,96,49,17,30.59,30.32,13,5,21,0.00
2014-4-21,70,50,27,38,28,20,100,52,15,30.35,29.84,17,6,23,0.00
2014-4-22,70,60,39,54,45,37,99,60,40,29.80,29.46,17,8,21,0.00
2014-4-23,55,49,43,51,39,28,93,69,48,29.74,29.49,32,13,40,0.03
2014-4-24,56,47,39,28,19,11,52,33,24,30.00,29.74,35,16,44,0.00
2014-4-25,64,52,41,30,23,16,45,32,22,30.05,29.79,17,8,22,0.00
2014-4-26,53,45,39,48,42,28,100,92,45,29.86,29.75,10,4,13,0.95
2014-4-27,53,46,39,44,37,32,99,71,52,30.14,29.86,23,10,25,0.01
2014-4-28,63,51,34,41,36,31,97,58,37,30.22,29.98,23,9,53,0.00
2014-4-29,48,44,39,41,37,34,97,78,62,30.53,30.22,23,10,26,0.06
2014-4-30,43,40,38,43,40,37,100,99,91,30.54,30.16,11,6,14,1.57
2014-5-1,66,51,41,59,49,41,100,93,73,30.16,29.64,13,6,19,0.66
2014-5-2,65,56,44,49,40,33,95,58,33,29.82,29.67,20,6,23,0.00
2014-5-3,53,49,46,43,41,39,84,75,64,29.86,29.82,6,2,7,0.00
2014-5-4,57,52,48,40,38,35,73,58,48,29.70,29.57,35,14,53,0.04
2014-5-5,64,53,44,42,39,36,88,61,38,29.88,29.70,25,10,29,0.00
2014-5-6,62,54,41,42,31,24,90,46,26,30.08,29.86,26,10,35,0.00
2014-5-7,68,53,35,36,29,22,83,42,21,30.21,30.08,15,5,19,0.00
2014-5-8,64,54,38,54,44,30,98,70,45,30.23,30.05,16,5,53,0.00
2014-5-9,58,56,53,58,56,53,100,100,97,30.21,30.05,11,4,13,0.20
2014-5-10,81,64,56,66,59,53,100,88,41,30.05,29.76,20,6,32,0.11
2014-5-11,76,65,53,60,38,22,100,41,14,30.08,29.83,22,8,32,0.01
2014-5-12,85,68,51,54,43,36,78,44,19,30.12,29.99,20,6,23,0.00
2014-5-13,66,58,48,55,44,40,80,60,42,30.34,30.05,19,8,25,0.00
2014-5-14,71,59,44,57,47,39,94,67,37,30.36,30.22,15,6,18,0.01
2014-5-15,74,65,58,67,62,55,100,90,72,30.28,30.15,16,6,22,0.10
2014-5-16,67,65,63,66,64,61,100,98,93,30.15,29.88,25,10,28,0.12
2014-5-17,67,59,49,66,46,38,100,67,37,30.14,29.80,19,8,28,1.13
2014-5-18,66,56,40,42,36,28,93,51,25,30.19,30.05,21,8,26,0.00
2014-5-19,68,57,46,40,33,27,64,42,23,30.18,30.02,23,10,32,0.00
2014-5-20,75,63,50,43,36,27,73,39,18,30.08,29.96,24,11,34,0.00
2014-5-21,76,62,43,50,43,34,94,55,26,30.02,29.87,13,5,19,0.00
2014-5-22,59,56,51,57,53,46,100,93,63,29.95,29.86,12,3,14,0.30
2014-5-23,69,58,53,61,56,53,100,95,68,29.98,29.86,11,5,17,0.77
2014-5-24,68,57,51,57,53,51,100,89,61,30.09,29.96,13,5,15,0.00
2014-5-25,78,63,48,60,52,42,100,73,29,30.09,29.98,23,4,23,0.00
2014-5-26,81,66,50,62,54,50,100,69,36,30.05,29.83,14,4,22,0.00
2014-5-27,82,68,51,64,56,50,100,69,46,29.95,29.76,19,6,53,0.26
2014-5-28,53,50,47,50,48,46,100,93,83,30.26,29.93,16,7,23,0.02
2014-5-29,68,54,37,51,44,37,100,72,40,30.30,30.11,13,4,14,0.00
2014-5-30,73,57,47,58,51,46,100,83,44,30.16,29.99,27,3,33,0.11
2014-5-31,67,56,44,56,50,44,100,83,51,30.35,30.09,19,6,26,0.00
2014-6-1,75,60,41,57,46,36,100,68,29,30.41,30.23,13,4,53,0.00
2014-6-2,83,66,45,56,51,43,95,61,26,30.26,30.00,17,5,53,0.00
2014-6-3,85,68,53,67,60,53,100,78,41,30.05,29.82,17,5,24,0.34
2014-6-4,75,65,58,65,60,48,100,87,41,29.90,29.75,10,4,53,0.26
2014-6-5,69,61,57,62,58,50,100,91,66,29.79,29.67,14,4,19,0.47
2014-6-6,71,64,56,55,53,50,89,69,50,29.92,29.76,20,8,26,0.00
2014-6-7,83,68,51,60,55,51,100,68,35,29.98,29.90,14,4,20,0.00
2014-6-8,83,69,52,63,57,52,100,69,35,29.98,29.87,15,3,19,0.00
2014-6-9,74,62,58,63,59,51,100,90,53,30.02,29.92,10,3,53,0.07
2014-6-10,79,69,60,69,64,58,100,86,65,30.10,29.94,19,5,24,0.00
2014-6-11,67,62,60,61,57,54,98,85,70,30.18,30.10,12,6,17,0.06
2014-6-12,62,61,58,62,61,58,100,100,100,30.15,30.02,7,4,9,0.10
2014-6-13,66,63,60,66,63,60,100,100,100,30.02,29.78,10,6,15,0.69
2014-6-14,71,63,55,65,55,48,100,79,52,29.98,29.80,23,7,25,0.01
2014-6-15,75,64,49,57,53,49,100,70,49,30.10,29.96,20,9,28,0.00
2014-6-16,79,66,50,61,52,40,100,68,29,30.18,30.03,11,4,15,0.00
2014-6-17,87,71,57,70,62,54,99,75,35,30.07,29.84,12,5,17,0.00
2014-6-18,79,72,64,71,65,62,100,79,56,29.98,29.78,27,8,32,0.16
2014-6-19,82,71,57,70,58,46,100,68,33,30.02,29.94,18,6,22,0.01
2014-6-20,74,65,53,52,46,38,89,53,29,30.02,29.91,18,7,23,0.04
2014-6-21,75,62,44,54,48,43,99,64,34,30.04,29.89,15,4,21,0.00
2014-6-22,77,63,49,59,52,49,100,74,39,30.05,29.96,10,2,12,0.00
2014-6-23,80,67,49,61,55,49,100,70,35,30.18,30.05,16,6,21,0.00
2014-6-24,78,69,59,63,59,55,100,73,51,30.18,30.00,21,7,23,0.00
2014-6-25,83,73,60,71,66,58,98,79,62,30.02,29.84,18,8,22,0.04
2014-6-26,83,72,66,76,67,63,100,85,54,30.01,29.81,18,4,20,0.45
2014-6-27,81,70,59,69,60,53,100,76,42,30.21,30.01,15,4,17,2.01
2014-6-28,86,71,55,68,59,48,100,72,31,30.29,30.21,11,4,53,0.00
2014-6-29,83,71,56,66,61,56,100,74,44,30.28,30.10,15,5,19,0.00
2014-6-30,83,72,56,68,63,56,100,74,49,30.12,29.94,14,6,20,0.00
2014-7-1,87,76,62,72,68,61,100,79,57,29.96,29.80,19,7,22,0.00
2014-7-2,87,74,68,75,70,66,100,88,66,29.94,29.82,20,6,34,0.59
2014-7-3,85,74,66,78,71,66,100,92,67,30.04,29.89,17,3,32,0.80
2014-7-4,71,65,60,68,65,56,100,98,82,30.02,29.90,16,5,19,0.35
2014-7-5,77,69,60,56,50,42,87,52,34,30.08,29.92,26,11,33,0.01
2014-7-6,80,69,53,60,53,46,95,59,37,30.08,29.89,18,6,22,0.00
2014-7-7,85,73,63,72,65,58,100,79,56,29.91,29.72,19,6,24,0.12
2014-7-8,85,76,65,74,70,65,100,83,58,29.82,29.66,19,7,23,0.00
2014-7-9,84,74,63,70,64,58,100,76,45,29.98,29.68,17,6,53,0.38
2014-7-10,80,69,59,70,58,50,100,72,37,30.18,29.98,11,3,16,0.00
2014-7-11,82,68,55,65,56,47,100,70,34,30.24,30.18,11,3,13,0.01
2014-7-12,84,70,53,68,60,53,100,74,44,30.27,30.11,12,4,53,0.00
2014-7-13,80,72,65,71,66,58,100,82,70,30.13,29.90,17,8,26,0.24
2014-7-14,81,74,69,79,71,67,100,92,67,29.94,29.86,17,5,17,0.19
2014-7-15,82,74,69,76,72,69,100,93,70,29.88,29.75,16,5,18,0.32
2014-7-16,82,70,63,71,66,58,100,86,51,29.90,29.75,11,4,53,1.17
2014-7-17,79,68,56,62,57,53,100,72,43,30.11,29.90,17,5,21,0.01
2014-7-18,81,68,54,66,58,48,100,74,34,30.25,30.11,9,2,53,0.00
2014-7-19,77,64,54,68,60,54,100,89,60,30.30,30.22,7,2,53,0.00
2014-7-20,81,66,57,67,59,54,100,83,43,30.24,30.13,10,3,53,0.00
2014-7-21,82,68,54,66,60,54,100,78,47,30.23,30.14,9,3,10,0.00
2014-7-22,87,73,60,71,66,60,100,80,46,30.17,30.00,14,4,16,0.00
2014-7-23,87,76,66,74,70,66,100,85,59,30.00,29.76,20,7,27,0.67
2014-7-24,79,70,58,69,62,56,100,77,46,29.95,29.78,16,6,22,0.01
2014-7-25,79,66,51,64,58,51,100,78,41,30.03,29.95,12,4,16,0.00
2014-7-26,79,68,57,65,59,51,100,77,39,30.02,29.89,16,4,19,0.00
2014-7-27,80,70,61,74,68,60,100,95,74,29.92,29.66,16,6,18,0.39
2014-7-28,80,68,63,71,66,60,100,91,66,29.70,29.44,23,6,23,0.16
2014-7-29,73,65,54,61,55,48,100,71,43,29.98,29.62,19,6,24,0.00
2014-7-30,77,64,53,66,56,47,100,80,37,30.08,29.98,9,3,13,0.00
2014-7-31,78,65,52,64,59,52,100,82,53,30.17,30.06,16,5,19,0.00
2014-8-1,82,68,57,71,64,57,100,87,61,30.22,30.17,19,4,37,0.21
2014-8-2,74,68,62,68,63,58,100,85,60,30.23,30.13,10,3,13,0.00
2014-8-3,78,66,59,68,63,59,100,89,58,30.17,30.04,10,2,12,0.00
2014-8-4,82,70,61,72,65,61,100,86,52,30.07,30.00,12,3,16,0.00
2014-8-5,84,71,59,71,64,59,100,81,46,30.06,29.92,21,4,53,0.51
2014-8-6,79,68,57,72,61,52,100,81,41,29.96,29.83,18,4,20,0.01
2014-8-7,76,63,52,64,55,51,100,78,44,30.01,29.89,19,6,25,0.00
2014-8-8,80,67,55,62,56,53,97,70,42,30.08,30.00,16,6,53,0.00
2014-8-9,83,67,53,68,60,53,100,80,42,30.14,30.07,11,3,53,0.00
2014-8-10,85,68,54,66,58,49,100,76,33,30.16,30.10,13,3,53,0.00
2014-8-11,85,69,54,67,61,54,100,79,40,30.18,30.09,14,3,53,0.00
2014-8-12,76,68,59,68,62,58,100,84,55,30.14,29.97,14,5,53,0.00
2014-8-13,71,66,60,68,65,60,100,97,87,29.97,29.65,18,6,24,2.96
2014-8-14,73,63,55,60,53,47,100,73,42,29.91,29.73,17,6,53,0.01
2014-8-15,69,60,51,62,54,51,100,83,57,29.96,29.88,13,3,18,0.00
2014-8-16,73,62,51,62,54,49,100,80,45,29.99,29.92,16,4,18,0.00
2014-8-17,76,65,56,65,58,54,100,79,53,29.92,29.81,16,5,23,0.02
2014-8-18,75,64,52,59,52,44,100,69,35,29.94,29.83,18,7,53,0.00
2014-8-19,77,62,46,61,54,46,100,81,48,29.98,29.89,10,3,53,0.02
2014-8-20,82,67,51,68,60,51,100,83,50,30.05,29.98,9,2,13,0.11
2014-8-21,71,66,62,68,64,61,100,94,82,30.10,30.04,9,3,11,0.32
2014-8-22,67,63,61,64,62,61,100,98,90,30.12,30.07,10,5,12,0.26
2014-8-23,74,65,57,64,61,57,100,89,65,30.17,30.11,12,4,15,0.07
2014-8-24,80,65,53,67,59,53,100,84,48,30.18,30.12,12,3,16,0.07
2014-8-25,87,69,54,70,61,54,100,80,42,30.20,30.12,13,2,13,0.00
2014-8-26,86,70,57,72,63,56,100,82,40,30.19,30.05,10,3,13,0.00
2014-8-27,87,73,60,74,67,60,100,84,57,30.07,29.87,15,4,16,0.01
2014-8-28,76,69,58,62,56,50,90,65,41,30.06,29.86,19,8,23,0.00
2014-8-29,78,63,49,61,54,49,100,77,45,30.27,30.06,13,3,17,0.06
2014-8-30,76,63,49,64,58,49,100,85,58,30.33,30.13,14,5,19,0.00
2014-8-31,79,72,66,74,69,63,100,92,78,30.14,29.96,11,5,15,0.03
2014-9-1,88,75,67,78,69,64,100,86,46,30.01,29.92,10,2,14,0.02
2014-9-2,88,76,66,77,71,66,100,88,59,29.95,29.74,13,4,16,0.00
2014-9-3,81,71,58,73,60,54,100,72,44,30.14,29.75,22,8,25,0.00
2014-9-4,82,68,53,67,60,53,100,80,46,30.22,30.12,16,4,19,0.00
2014-9-5,85,72,58,73,67,58,100,85,63,30.18,30.00,17,6,21,0.00
2014-9-6,87,75,62,75,69,57,100,85,59,30.00,29.78,19,7,23,0.36
2014-9-7,77,65,53,66,58,50,100,81,41,30.25,29.96,13,2,17,0.22
2014-9-8,74,60,48,61,53,48,100,81,47,30.40,30.25,14,3,17,0.05
2014-9-9,71,59,47,59,53,47,100,82,60,30.40,30.21,13,4,16,0.00
2014-9-10,72,60,49,60,56,49,100,87,60,30.23,30.07,13,4,53,0.00
2014-9-11,73,65,55,70,62,54,100,92,75,30.07,29.80,20,7,28,0.00
2014-9-12,73,60,49,54,51,47,100,75,50,30.28,29.98,16,7,23,0.00
2014-9-13,61,54,44,57,51,42,100,90,70,30.32,30.14,17,4,19,0.33
2014-9-14,67,54,43,54,47,43,100,81,46,30.29,30.17,16,4,19,0.03
2014-9-15,66,53,40,54,46,40,100,82,45,30.31,30.11,10,3,13,0.03
2014-9-16,68,54,48,59,52,48,100,93,65,30.14,29.96,17,2,17,0.09
2014-9-17,67,55,42,56,47,42,100,79,42,30.10,29.96,12,4,53,0.02
2014-9-18,73,55,40,59,49,40,100,84,48,30.18,29.97,11,4,53,0.00
2014-9-19,62,49,38,47,39,31,100,71,40,30.45,30.18,15,6,20,0.00